Time;durP1;ratioP1;P1;durP2;ratioP2;P2;SDS_P1;SDS_P2;PMS_P1;PMS_P2;Temp;Humidity;BMP_temperature;BMP_pressure;BME280_temperature;BME280_humidity;BME280_pressure;Samples;Min_cycle;Max_cycle;Signal;HPM_P1;HPM_P2
2022/12/05 00:01:58;;;;;;;25.43;9.43;;;5.00;99.90;;;;;;4979129;28;20077;-74
2022/12/05 00:04:23;;;;;;;24.00;9.33;;;5.00;99.90;;;;;;4977933;28;20080;-73
2022/12/05 00:06:49;;;;;;;21.70;9.67;;;5.10;99.90;;;;;;4979559;28;20038;-73
2022/12/05 00:09:14;;;;;;;25.33;9.57;;;5.00;99.90;;;;;;4979725;28;20054;-73
2022/12/05 00:11:43;;;;;;;23.87;8.97;;;5.00;99.90;;;;;;4979362;28;20050;-73
2022/12/05 00:14:09;;;;;;;24.27;9.85;;;5.00;99.90;;;;;;4991862;28;20045;-74
2022/12/05 00:16:36;;;;;;;;;;;5.00;99.90;;;;;;4981838;28;20503;-73
2022/12/05 00:19:04;;;;;;;20.85;8.82;;;5.00;99.90;;;;;;4981351;28;19921;-73
2022/12/05 00:21:33;;;;;;;22.17;9.27;;;5.00;99.90;;;;;;4980913;28;20038;-73
2022/12/05 00:24:00;;;;;;;20.13;8.50;;;5.00;99.90;;;;;;4976201;28;20124;-73
2022/12/05 00:26:26;;;;;;;20.23;8.70;;;5.00;99.90;;;;;;4981966;28;20465;-72
2022/12/05 00:28:52;;;;;;;23.60;9.07;;;5.00;99.90;;;;;;4980990;28;20372;-72
2022/12/05 00:31:21;;;;;;;20.58;9.05;;;5.00;99.90;;;;;;4982697;28;20050;-73
2022/12/05 00:33:47;;;;;;;18.50;8.30;;;5.00;99.90;;;;;;4985720;28;20289;-73
2022/12/05 00:36:21;;;;;;;18.00;8.10;;;5.00;99.90;;;;;;4986717;28;20633;-72
2022/12/05 00:38:50;;;;;;;19.70;9.30;;;5.00;99.90;;;;;;4982618;28;20054;-70
2022/12/05 00:41:19;;;;;;;19.13;7.72;;;5.00;99.90;;;;;;4976283;28;20046;-70
2022/12/05 00:43:45;;;;;;;22.15;8.52;;;5.10;99.90;;;;;;4979415;28;20054;-73
2022/12/05 00:46:18;;;;;;;22.58;9.52;;;5.10;99.90;;;;;;4977926;28;20046;-73
2022/12/05 00:48:43;;;;;;;17.48;7.68;;;5.10;99.90;;;;;;4983791;28;20068;-73
2022/12/05 00:51:21;;;;;;;19.13;8.87;;;5.10;99.90;;;;;;4984995;28;20042;-73
2022/12/05 00:53:47;;;;;;;21.77;8.95;;;5.10;99.90;;;;;;4982697;28;20095;-73
2022/12/05 00:56:15;;;;;;;23.45;9.52;;;5.10;99.90;;;;;;4980141;28;20113;-73
2022/12/05 00:58:41;;;;;;;20.85;9.57;;;5.10;99.90;;;;;;4982948;28;20046;-73
2022/12/05 01:01:39;;;;;;;18.80;8.70;;;5.10;99.90;;;;;;4981393;28;20388;-73
2022/12/05 01:04:09;;;;;;;20.92;9.18;;;5.10;99.90;;;;;;4986645;28;20050;-73
2022/12/05 01:06:35;;;;;;;21.77;10.07;;;5.10;99.90;;;;;;4984057;28;20042;-71
2022/12/05 01:09:02;;;;;;;25.23;10.35;;;5.10;99.90;;;;;;4988025;28;20337;-73
2022/12/05 01:11:27;;;;;;;;;;;5.20;99.90;;;;;;4981772;28;20058;-73
2022/12/05 01:13:53;;;;;;;24.70;9.07;;;5.20;99.90;;;;;;4986141;28;19941;-73
2022/12/05 01:16:31;;;;;;;27.52;11.43;;;5.20;99.90;;;;;;4989829;28;20116;-73
2022/12/05 01:18:59;;;;;;;23.40;9.07;;;5.20;99.90;;;;;;4985096;28;20488;-73
2022/12/05 01:21:25;;;;;;;25.10;10.40;;;5.20;99.90;;;;;;5001314;28;20228;-73
2022/12/05 01:23:51;;;;;;;23.35;10.65;;;5.30;99.90;;;;;;4988292;28;20125;-71
2022/12/05 01:26:20;;;;;;;23.10;10.18;;;5.30;99.90;;;;;;5003030;28;20617;-71
2022/12/05 01:28:46;;;;;;;23.52;9.73;;;5.30;99.90;;;;;;5000414;28;20046;-70
2022/12/05 01:31:33;;;;;;;26.08;10.10;;;5.30;99.90;;;;;;4983110;28;20058;-71
2022/12/05 01:34:01;;;;;;;21.40;9.40;;;5.30;99.90;;;;;;4991184;28;20049;-71
2022/12/05 01:36:28;;;;;;;23.75;9.57;;;5.30;99.90;;;;;;4980039;28;20038;-70
2022/12/05 01:38:54;;;;;;;23.88;10.15;;;5.30;99.90;;;;;;4998663;28;20092;-71
2022/12/05 01:41:25;;;;;;;;;;;5.40;99.90;;;;;;4973826;28;20390;-70
2022/12/05 01:44:11;;;;;;;22.05;9.15;;;5.40;99.90;;;;;;5001154;28;20253;-70
2022/12/05 01:46:48;;;;;;;18.98;8.43;;;5.30;99.90;;;;;;4983947;28;20050;-71
2022/12/05 01:49:25;;;;;;;21.52;9.13;;;5.30;99.90;;;;;;4985161;28;20491;-70
2022/12/05 01:51:55;;;;;;;18.85;8.68;;;5.40;99.90;;;;;;4984652;28;20633;-70
2022/12/05 01:54:21;;;;;;;17.58;8.55;;;5.30;99.90;;;;;;4984017;28;20046;-71
2022/12/05 01:56:56;;;;;;;26.75;10.25;;;5.30;99.90;;;;;;4985169;28;20463;-70
2022/12/05 01:59:23;;;;;;;23.65;9.18;;;5.40;99.90;;;;;;4986459;28;20168;-70
2022/12/05 02:01:49;;;;;;;19.58;8.38;;;5.40;99.90;;;;;;4981073;28;20140;-70
2022/12/05 02:04:15;;;;;;;20.98;9.25;;;5.40;99.90;;;;;;4985050;28;20042;-70
2022/12/05 02:06:42;;;;;;;20.27;8.60;;;5.40;99.90;;;;;;4983352;28;20065;-71
2022/12/05 02:09:07;;;;;;;17.60;7.63;;;5.40;99.90;;;;;;4984961;28;20052;-70
2022/12/05 02:11:34;;;;;;;17.77;8.20;;;5.40;99.90;;;;;;4983703;28;20907;-71
2022/12/05 02:14:31;;;;;;;17.67;7.88;;;5.40;99.90;;;;;;4989041;28;20129;-71
2022/12/05 02:17:15;;;;;;;15.57;7.40;;;5.50;99.90;;;;;;4979908;28;20119;-71
2022/12/05 02:19:59;;;;;;;15.45;7.30;;;5.40;99.90;;;;;;4980062;28;20053;-71
2022/12/05 02:22:56;;;;;;;15.38;7.43;;;5.40;99.90;;;;;;4987365;28;20042;-71
2022/12/05 02:25:37;;;;;;;19.80;8.07;;;5.50;99.90;;;;;;4982930;28;20045;-71
2022/12/05 02:28:34;;;;;;;18.30;7.57;;;5.50;99.90;;;;;;4995480;28;20070;-71
2022/12/05 02:31:29;;;;;;;13.75;7.47;;;5.50;99.90;;;;;;4979719;28;20177;-71
2022/12/05 02:34:06;;;;;;;15.63;6.82;;;5.50;99.90;;;;;;4994039;28;20042;-71
2022/12/05 02:36:54;;;;;;;18.08;6.72;;;5.60;99.90;;;;;;4977169;28;20038;-70
2022/12/05 02:39:31;;;;;;;10.57;5.97;;;5.50;99.90;;;;;;4980741;28;20084;-70
2022/12/05 02:42:17;;;;;;;11.30;6.32;;;5.60;99.90;;;;;;4978550;28;20114;-71
2022/12/05 02:44:55;;;;;;;12.50;6.28;;;5.60;99.90;;;;;;4985388;28;20100;-70
2022/12/05 02:47:26;;;;;;;11.32;4.95;;;5.60;99.90;;;;;;4983582;28;20077;-71
2022/12/05 02:49:53;;;;;;;14.20;5.93;;;5.60;99.90;;;;;;4984788;28;20042;-70
2022/12/05 02:52:21;;;;;;;9.95;4.97;;;5.60;99.90;;;;;;4985110;28;20046;-71
2022/12/05 02:54:49;;;;;;;11.57;6.22;;;5.60;99.90;;;;;;4985850;28;20057;-70
2022/12/05 02:57:16;;;;;;;11.05;5.07;;;5.70;99.90;;;;;;4985030;28;20126;-70
2022/12/05 02:59:42;;;;;;;12.80;4.90;;;5.70;99.90;;;;;;4984386;28;20054;-70
2022/12/05 03:02:08;;;;;;;11.80;5.10;;;5.70;99.90;;;;;;4985309;28;20042;-70
2022/12/05 03:04:34;;;;;;;12.40;5.57;;;5.70;99.90;;;;;;4985721;28;20068;-70
2022/12/05 03:07:06;;;;;;;11.45;5.00;;;5.70;99.90;;;;;;4984292;28;20104;-71
2022/12/05 03:09:44;;;;;;;7.82;4.00;;;5.70;99.90;;;;;;4986513;28;20457;-70
2022/12/05 03:12:21;;;;;;;12.52;5.15;;;5.70;99.90;;;;;;4999914;28;20038;-71
2022/12/05 03:14:59;;;;;;;8.20;4.22;;;5.70;99.90;;;;;;4985570;28;20042;-70
2022/12/05 03:17:34;;;;;;;9.05;4.68;;;5.70;99.90;;;;;;4983601;28;20374;-71
2022/12/05 03:20:29;;;;;;;8.95;4.70;;;5.70;99.90;;;;;;4977404;28;20043;-70
2022/12/05 03:23:06;;;;;;;12.35;5.20;;;5.70;99.90;;;;;;4969069;28;20057;-70
2022/12/05 03:25:45;;;;;;;;;;;5.70;99.90;;;;;;4982538;28;20081;-71
2022/12/05 03:28:29;;;;;;;8.65;3.75;;;5.70;99.90;;;;;;4984389;28;19945;-70
2022/12/05 03:30:59;;;;;;;7.18;3.83;;;5.70;99.90;;;;;;4980570;28;20077;-70
2022/12/05 03:33:33;;;;;;;9.80;4.38;;;5.70;99.90;;;;;;4987279;28;20468;-70
2022/12/05 03:36:09;;;;;;;10.38;4.47;;;5.70;99.90;;;;;;4980635;28;20038;-70
2022/12/05 03:38:45;;;;;;;7.65;4.25;;;5.70;99.90;;;;;;4980927;28;20042;-70
2022/12/05 03:41:40;;;;;;;8.98;4.07;;;5.80;99.90;;;;;;4983075;28;20110;-70
2022/12/05 03:44:44;;;;;;;9.98;4.00;;;5.70;99.90;;;;;;4989174;28;20115;-70
2022/12/05 03:47:20;;;;;;;7.15;3.72;;;5.70;99.90;;;;;;4942642;28;20436;-70
2022/12/05 03:49:53;;;;;;;10.50;4.80;;;5.70;99.90;;;;;;4983243;28;20277;-70
2022/12/05 03:52:24;;;;;;;8.25;4.03;;;5.70;99.90;;;;;;4987786;28;20043;-70
2022/12/05 03:54:55;;;;;;;7.75;3.53;;;5.70;99.90;;;;;;4982911;28;20066;-73
2022/12/05 03:57:33;;;;;;;9.98;3.65;;;5.70;99.90;;;;;;4994355;28;20038;-73
2022/12/05 04:00:04;;;;;;;8.40;3.40;;;5.70;99.90;;;;;;4981062;28;20061;-73
2022/12/05 04:02:44;;;;;;;6.63;3.28;;;5.70;99.90;;;;;;4980192;28;20038;-73
2022/12/05 04:05:19;;;;;;;8.05;3.92;;;5.70;99.90;;;;;;4983971;28;20081;-73
2022/12/05 04:07:49;;;;;;;6.63;3.47;;;5.70;99.90;;;;;;4993593;28;20045;-73
2022/12/05 04:10:21;;;;;;;10.75;3.28;;;5.70;99.90;;;;;;4982980;28;20177;-73
2022/12/05 04:12:50;;;;;;;7.97;3.50;;;5.60;99.90;;;;;;4981791;28;20563;-73
2022/12/05 04:15:21;;;;;;;7.85;3.72;;;5.70;99.90;;;;;;4983437;28;20035;-73
2022/12/05 04:17:59;;;;;;;7.38;3.50;;;5.70;99.90;;;;;;4983010;28;20058;-73
2022/12/05 04:23:25;;;;;;;8.15;3.90;;;5.70;99.90;;;;;;4981783;28;20504;-73
2022/12/05 04:26:10;;;;;;;8.60;3.60;;;5.70;99.90;;;;;;4984424;28;20056;-73
2022/12/05 04:28:38;;;;;;;8.32;3.90;;;5.70;99.90;;;;;;4983703;28;20523;-73
2022/12/05 04:31:25;;;;;;;7.95;3.53;;;5.70;99.90;;;;;;4983678;28;20117;-73
2022/12/05 04:34:04;;;;;;;7.75;3.55;;;5.70;99.90;;;;;;4983735;28;20121;-73
2022/12/05 04:36:55;;;;;;;7.18;3.92;;;5.70;99.90;;;;;;4962848;28;20090;-73
2022/12/05 04:39:40;;;;;;;7.65;3.55;;;5.70;99.90;;;;;;4977727;28;20034;-73
2022/12/05 04:42:19;;;;;;;5.78;2.95;;;5.70;99.90;;;;;;4982254;28;20046;-73
2022/12/05 04:44:53;;;;;;;9.80;3.45;;;5.70;99.90;;;;;;4999102;28;20050;-73
2022/12/05 04:47:24;;;;;;;9.07;4.15;;;5.70;99.90;;;;;;4996787;23;20125;-69
2022/12/05 04:49:52;;;;;;;7.75;4.35;;;5.70;99.90;;;;;;4979737;28;20054;-69
2022/12/05 04:52:18;;;;;;;9.75;4.50;;;5.70;99.90;;;;;;4981612;28;20035;-69
2022/12/05 04:54:54;;;;;;;9.27;4.35;;;5.70;99.90;;;;;;4970789;28;20047;-69
2022/12/05 04:57:39;;;;;;;9.15;4.45;;;5.70;99.90;;;;;;4964792;28;20094;-69
2022/12/05 05:00:06;;;;;;;9.65;4.35;;;5.70;99.90;;;;;;4983256;28;20038;-69
2022/12/05 05:02:39;;;;;;;8.18;4.25;;;5.70;99.90;;;;;;4971031;28;20038;-69
2022/12/05 05:05:10;;;;;;;9.00;4.18;;;5.70;99.90;;;;;;4962004;28;20057;-69
2022/12/05 05:07:47;;;;;;;10.82;4.75;;;5.70;99.90;;;;;;4965117;28;20046;-69
2022/12/05 05:10:18;;;;;;;8.52;3.83;;;5.70;99.90;;;;;;4957424;28;20101;-69
2022/12/05 05:12:44;;;;;;;8.55;4.45;;;5.70;99.90;;;;;;4970358;28;20043;-69
2022/12/05 05:15:10;;;;;;;9.00;3.90;;;5.70;99.90;;;;;;4970296;28;20165;-69
2022/12/05 05:17:35;;;;;;;7.07;4.07;;;5.70;99.90;;;;;;4970019;28;20195;-69
2022/12/05 05:20:22;;;;;;;10.10;4.20;;;5.70;99.90;;;;;;4970186;28;20105;-69
2022/12/05 05:22:48;;;;;;;9.65;3.58;;;5.70;99.90;;;;;;4971133;28;20045;-69
2022/12/05 05:25:14;;;;;;;7.28;3.90;;;5.70;99.90;;;;;;4971478;28;20049;-69
2022/12/05 05:27:39;;;;;;;9.13;4.03;;;5.70;99.90;;;;;;4972058;28;20424;-69
2022/12/05 05:30:06;;;;;;;8.83;3.80;;;5.70;99.90;;;;;;4973302;28;20563;-69
2022/12/05 05:32:32;;;;;;;7.15;3.63;;;5.80;99.90;;;;;;4977008;28;20047;-68
2022/12/05 05:34:57;;;;;;;11.32;4.32;;;5.80;99.90;;;;;;4974786;28;20042;-69
2022/12/05 05:37:23;;;;;;;13.43;4.97;;;5.80;99.90;;;;;;4973160;28;20042;-69
2022/12/05 05:39:48;;;;;;;8.53;4.00;;;5.70;99.90;;;;;;4973825;28;20034;-69
2022/12/05 05:42:14;;;;;;;9.47;3.80;;;5.80;99.90;;;;;;4971594;28;20063;-68
2022/12/05 05:44:40;;;;;;;8.47;4.37;;;5.70;99.90;;;;;;4968647;28;20097;-69
2022/12/05 05:47:05;;;;;;;8.83;4.17;;;5.80;99.90;;;;;;4966673;28;20519;-69
2022/12/05 05:49:31;;;;;;;7.53;3.50;;;5.80;99.90;;;;;;4970514;28;20049;-69
2022/12/05 05:51:56;;;;;;;8.37;3.90;;;5.80;99.90;;;;;;4968248;28;20184;-69
2022/12/05 05:54:22;;;;;;;10.37;3.70;;;5.80;99.90;;;;;;4966689;28;20031;-69
2022/12/05 05:56:48;;;;;;;6.53;4.07;;;5.80;99.90;;;;;;4971099;28;20035;-68
2022/12/05 05:59:13;;;;;;;7.73;4.57;;;5.80;99.90;;;;;;4969852;28;20035;-69
2022/12/05 06:01:39;;;;;;;10.33;4.50;;;5.80;99.90;;;;;;4969985;28;20047;-69
2022/12/05 06:04:06;;;;;;;8.93;4.50;;;5.80;99.90;;;;;;4977281;28;20046;-69
2022/12/05 06:06:34;;;;;;;7.88;3.88;;;5.80;99.90;;;;;;4979814;28;20045;-68
2022/12/05 06:09:00;;;;;;;8.40;3.90;;;5.80;99.90;;;;;;4965338;28;20094;-69
2022/12/05 06:11:27;;;;;;;7.97;3.80;;;5.80;99.90;;;;;;4963970;28;20062;-69
2022/12/05 06:13:54;;;;;;;5.97;3.67;;;5.80;99.90;;;;;;4968381;28;20034;-69
2022/12/05 06:16:20;;;;;;;8.43;3.90;;;5.80;99.90;;;;;;4966655;28;20042;-69
2022/12/05 06:18:46;;;;;;;9.23;4.53;;;5.80;99.90;;;;;;4966365;28;20547;-69
2022/12/05 06:21:11;;;;;;;12.67;3.60;;;5.80;99.90;;;;;;4968486;28;20078;-69
2022/12/05 06:23:38;;;;;;;7.63;3.93;;;5.80;99.90;;;;;;4971953;28;20047;-69
2022/12/05 06:26:08;;;;;;;10.50;4.57;;;5.80;99.90;;;;;;4974307;28;20045;-69
2022/12/05 06:28:34;;;;;;;11.52;4.72;;;5.80;99.90;;;;;;4977335;28;20468;-69
2022/12/05 06:31:16;;;;;;;6.53;3.50;;;5.80;99.90;;;;;;4961948;28;20078;-69
2022/12/05 06:33:43;;;;;;;8.82;4.57;;;5.80;99.90;;;;;;4988961;28;20065;-69
2022/12/05 06:36:10;;;;;;;;;;;5.80;99.90;;;;;;4963393;28;20046;-69
2022/12/05 06:38:36;;;;;;;;;;;5.80;99.90;;;;;;4974978;28;19965;-69
2022/12/05 06:41:07;;;;;;;7.80;3.22;;;5.80;99.90;;;;;;4974788;28;20031;-70
2022/12/05 06:43:33;;;;;;;9.10;4.38;;;5.80;99.90;;;;;;4974140;28;20054;-72
2022/12/05 06:46:02;;;;;;;9.03;3.83;;;5.80;99.90;;;;;;4970597;28;20042;-70
2022/12/05 06:48:29;;;;;;;7.70;3.97;;;5.80;99.90;;;;;;4970070;28;20038;-67
2022/12/05 06:50:54;;;;;;;10.88;3.70;;;5.80;99.90;;;;;;4966720;28;20125;-68
2022/12/05 06:53:20;;;;;;;7.30;3.77;;;5.80;99.90;;;;;;4969125;28;20349;-67
2022/12/05 06:55:57;;;;;;;10.05;3.88;;;5.80;99.90;;;;;;4971511;28;20043;-66
2022/12/05 06:58:22;;;;;;;8.60;4.27;;;5.80;99.90;;;;;;4979836;28;20034;-66
2022/12/05 07:03:33;;;;;;;11.40;3.95;;;5.80;99.90;;;;;;4974215;28;20052;-66
2022/12/05 07:06:04;;;;;;;6.77;3.47;;;5.80;99.90;;;;;;4973327;28;20130;-65
2022/12/05 07:08:30;;;;;;;9.10;4.13;;;5.80;99.90;;;;;;4966378;28;20050;-65
2022/12/05 07:10:56;;;;;;;6.90;3.53;;;5.80;99.90;;;;;;4966568;28;20039;-68
2022/12/05 07:13:22;;;;;;;6.95;3.72;;;5.80;99.90;;;;;;4971493;28;20585;-69
2022/12/05 07:15:49;;;;;;;9.90;4.50;;;5.80;99.90;;;;;;4965725;28;20039;-66
2022/12/05 07:18:16;;;;;;;9.00;4.35;;;5.80;99.90;;;;;;4962129;28;20038;-66
2022/12/05 07:20:42;;;;;;;9.20;3.70;;;5.80;99.90;;;;;;4970052;28;20073;-66
2022/12/05 07:23:08;;;;;;;6.97;3.85;;;5.80;99.90;;;;;;4968620;28;20489;-66
2022/12/05 07:25:39;;;;;;;10.45;3.90;;;5.80;99.90;;;;;;4965549;28;20138;-67
2022/12/05 07:28:05;;;;;;;6.93;3.80;;;5.90;99.90;;;;;;4967284;28;20035;-67
2022/12/05 07:30:30;;;;;;;12.50;4.70;;;5.80;99.90;;;;;;4970168;28;20389;-66
2022/12/05 07:32:56;;;;;;;9.32;4.05;;;5.90;99.90;;;;;;4968002;28;20062;-66
2022/12/05 07:35:22;;;;;;;11.37;4.67;;;5.80;99.90;;;;;;4973248;28;20197;-66
2022/12/05 07:37:47;;;;;;;7.17;3.50;;;5.80;99.90;;;;;;4963840;28;20042;-65
2022/12/05 07:40:13;;;;;;;12.47;4.40;;;5.80;99.90;;;;;;4970432;28;20129;-66
2022/12/05 07:42:39;;;;;;;11.98;4.63;;;5.90;99.90;;;;;;4962456;28;20085;-66
2022/12/05 07:45:05;;;;;;;16.93;4.83;;;5.80;99.90;;;;;;4963631;28;20069;-67
2022/12/05 07:47:31;;;;;;;;;;;5.80;99.90;;;;;;4972429;28;20050;-66
2022/12/05 07:49:57;;;;;;;9.07;4.25;;;5.80;99.90;;;;;;4971120;28;19918;-66
2022/12/05 07:52:22;;;;;;;8.83;4.37;;;5.90;99.90;;;;;;4965193;28;20042;-66
2022/12/05 07:54:48;;;;;;;9.75;4.55;;;5.80;99.90;;;;;;4970634;28;20368;-65
2022/12/05 07:57:14;;;;;;;10.80;3.70;;;5.90;99.90;;;;;;4969408;28;20103;-65
2022/12/05 07:59:39;;;;;;;14.73;5.53;;;5.90;99.90;;;;;;4981030;28;20104;-66
2022/12/05 08:02:05;;;;;;;10.60;3.53;;;5.90;99.90;;;;;;4957907;28;20126;-67
2022/12/05 08:04:30;;;;;;;10.37;3.90;;;5.90;99.90;;;;;;4959027;28;20050;-67
2022/12/05 08:06:56;;;;;;;12.33;4.70;;;5.90;99.90;;;;;;4965246;28;20046;-66
2022/12/05 08:09:22;;;;;;;10.13;4.30;;;5.90;99.90;;;;;;4958393;28;20049;-66
2022/12/05 08:11:47;;;;;;;11.40;4.40;;;5.90;99.90;;;;;;4954846;28;20031;-67
2022/12/05 08:14:13;;;;;;;9.60;3.80;;;5.90;99.90;;;;;;4961693;28;20035;-67
2022/12/05 08:16:38;;;;;;;12.63;4.40;;;6.00;99.90;;;;;;4961884;28;20043;-67
2022/12/05 08:19:06;;;;;;;10.27;3.90;;;5.90;99.90;;;;;;4963211;28;20089;-67
2022/12/05 08:21:33;;;;;;;8.77;3.97;;;6.00;99.90;;;;;;4972678;28;20213;-66
2022/12/05 08:23:59;;;;;;;12.98;4.13;;;5.90;99.90;;;;;;4970307;28;20034;-67
2022/12/05 08:26:30;;;;;;;11.37;3.87;;;6.00;99.90;;;;;;4965069;28;20458;-67
2022/12/05 08:29:05;;;;;;;12.77;3.53;;;6.00;99.90;;;;;;4962725;28;20388;-67
2022/12/05 08:31:33;;;;;;;7.38;3.40;;;6.00;99.90;;;;;;4968763;28;20062;-67
2022/12/05 08:34:00;;;;;;;14.93;4.70;;;6.00;99.90;;;;;;4967435;28;20038;-66
2022/12/05 08:36:28;;;;;;;9.60;4.28;;;6.00;99.90;;;;;;4975776;28;20405;-67
2022/12/05 08:38:58;;;;;;;7.85;3.17;;;6.00;99.90;;;;;;4978551;28;20404;-66
2022/12/05 08:41:28;;;;;;;7.72;3.80;;;6.00;99.90;;;;;;4955340;28;20137;-66
2022/12/05 08:44:04;;;;;;;10.32;4.03;;;6.00;99.90;;;;;;4954214;28;20047;-66
2022/12/05 08:46:32;;;;;;;10.98;4.10;;;6.00;99.90;;;;;;4971273;28;20047;-67
2022/12/05 08:48:57;;;;;;;11.70;3.65;;;6.00;99.90;;;;;;4963290;28;20034;-67
2022/12/05 08:51:23;;;;;;;10.63;4.30;;;6.00;99.90;;;;;;4968494;28;20444;-67
2022/12/05 08:53:49;;;;;;;8.05;3.90;;;6.00;99.90;;;;;;4970371;28;20043;-66
2022/12/05 08:56:15;;;;;;;10.50;3.80;;;6.00;99.90;;;;;;4970869;28;20053;-67
2022/12/05 08:58:41;;;;;;;11.98;4.03;;;6.00;99.90;;;;;;4970988;28;20520;-67
2022/12/05 09:01:12;;;;;;;11.57;4.43;;;6.00;99.90;;;;;;4977710;28;20042;-67
2022/12/05 09:03:39;;;;;;;12.40;4.18;;;6.00;99.90;;;;;;4973878;28;20352;-67
2022/12/05 09:06:14;;;;;;;12.60;4.03;;;6.00;99.90;;;;;;4969938;28;20462;-67
2022/12/05 09:08:41;;;;;;;12.93;4.60;;;6.00;99.90;;;;;;4964923;28;20568;-67
2022/12/05 09:11:16;;;;;;;14.27;4.72;;;6.00;99.90;;;;;;4959308;28;20449;-66
2022/12/05 09:13:42;;;;;;;12.23;4.22;;;6.00;99.90;;;;;;4969347;28;20416;-66
2022/12/05 09:16:10;;;;;;;13.35;4.03;;;6.00;99.90;;;;;;4969979;28;20539;-66
2022/12/05 09:18:36;;;;;;;10.00;4.10;;;6.10;99.90;;;;;;4962287;28;20094;-67
2022/12/05 09:21:10;;;;;;;14.07;3.97;;;6.10;99.90;;;;;;4963686;28;20038;-67
2022/12/05 09:23:35;;;;;;;11.02;4.57;;;6.10;99.90;;;;;;4970637;28;20043;-66
2022/12/05 09:26:01;;;;;;;9.37;3.87;;;6.10;99.90;;;;;;4967060;28;20484;-67
2022/12/05 09:28:28;;;;;;;15.52;5.00;;;6.10;99.90;;;;;;4971876;28;20043;-67
2022/12/05 09:31:00;;;;;;;9.77;4.00;;;6.10;99.90;;;;;;4971170;28;20525;-67
2022/12/05 09:33:29;;;;;;;8.98;4.05;;;6.10;99.90;;;;;;4977022;28;20046;-67
2022/12/05 09:35:55;;;;;;;12.38;4.50;;;6.10;99.90;;;;;;4964878;28;20038;-67
2022/12/05 09:38:21;;;;;;;10.83;4.27;;;6.10;99.90;;;;;;4963593;28;20097;-69
2022/12/05 09:41:10;;;;;;;12.63;4.68;;;6.20;99.90;;;;;;4964444;28;20435;-66
2022/12/05 09:43:59;;;;;;;9.30;3.85;;;6.10;99.90;;;;;;4966930;28;20440;-69
2022/12/05 09:46:37;;;;;;;13.43;5.13;;;6.10;99.90;;;;;;4967016;28;20100;-70
2022/12/05 09:49:06;;;;;;;9.30;4.35;;;6.20;99.90;;;;;;4968538;28;20061;-70
2022/12/05 09:51:32;;;;;;;11.73;4.30;;;6.10;99.90;;;;;;4964225;28;20134;-69
2022/12/05 09:53:58;;;;;;;12.30;4.80;;;6.20;99.90;;;;;;4968712;28;22562;-70
2022/12/05 09:56:28;;;;;;;12.57;5.50;;;6.20;99.90;;;;;;4972247;28;20125;-70
2022/12/05 09:58:56;;;;;;;13.95;4.70;;;6.20;99.90;;;;;;4969000;28;20440;-70
2022/12/05 10:01:45;;;;;;;11.25;4.57;;;6.20;99.90;;;;;;4944102;28;20503;-70
2022/12/05 10:04:36;;;;;;;17.05;4.70;;;6.20;99.90;;;;;;4963639;28;20129;-70
2022/12/05 10:07:16;;;;;;;9.80;4.38;;;6.20;99.90;;;;;;4961964;28;20141;-70
2022/12/05 10:10:06;;;;;;;11.63;5.28;;;6.20;99.90;;;;;;4959576;28;20046;-69
2022/12/05 10:12:50;;;;;;;12.45;4.60;;;6.20;99.90;;;;;;4957705;28;20094;-70
2022/12/05 10:15:37;;;;;;;9.25;4.20;;;6.20;99.90;;;;;;4963114;28;20046;-76
2022/12/05 10:18:31;;;;;;;11.95;4.95;;;6.20;99.90;;;;;;4983988;28;20034;-74
2022/12/05 10:21:09;;;;;;;12.00;4.10;;;6.20;99.90;;;;;;4951723;28;20421;-76
2022/12/05 10:23:38;;;;;;;11.40;4.55;;;6.20;99.90;;;;;;4967604;28;20050;-69
2022/12/05 10:26:06;;;;;;;11.40;4.70;;;6.20;99.90;;;;;;4966042;28;20130;-69
2022/12/05 10:29:07;;;;;;;12.30;4.90;;;6.20;99.90;;;;;;4967449;28;20055;-69
2022/12/05 10:31:36;;;;;;;13.55;4.32;;;6.20;99.90;;;;;;4960680;28;20042;-70
2022/12/05 10:34:21;;;;;;;7.88;3.85;;;6.20;99.90;;;;;;4962263;28;20050;-69
2022/12/05 10:37:18;;;;;;;10.68;4.03;;;6.20;99.90;;;;;;4968664;28;20133;-69
2022/12/05 10:39:45;;;;;;;8.18;4.28;;;6.20;99.90;;;;;;4961965;28;20413;-69
2022/12/05 10:42:24;;;;;;;10.10;4.70;;;6.20;99.90;;;;;;4967614;28;20050;-73
2022/12/05 10:44:56;;;;;;;8.63;4.15;;;6.20;99.90;;;;;;4965789;28;20097;-71
2022/12/05 10:47:22;;;;;;;9.45;5.20;;;6.20;99.90;;;;;;5061623;23;20041;-70
2022/12/05 10:49:48;;;;;;;11.87;4.67;;;6.20;99.90;;;;;;5022035;28;20033;-71
2022/12/05 10:52:14;;;;;;;11.35;4.60;;;6.10;99.90;;;;;;5014209;28;20056;-72
2022/12/05 10:54:55;;;;;;;15.50;4.40;;;6.10;99.90;;;;;;5017693;28;20140;-70
2022/12/05 10:57:26;;;;;;;9.57;4.10;;;6.10;99.90;;;;;;5013785;28;20041;-71
2022/12/05 10:59:53;;;;;;;9.70;4.30;;;6.10;99.90;;;;;;5027960;28;20128;-69
2022/12/05 11:02:19;;;;;;;;;;;6.10;99.90;;;;;;5013090;28;20042;-72
2022/12/05 11:04:44;;;;;;;10.73;4.57;;;6.10;99.90;;;;;;5032615;28;20044;-69
2022/12/05 11:07:26;;;;;;;11.52;4.50;;;6.10;99.90;;;;;;5015392;28;20435;-69
2022/12/05 11:09:52;;;;;;;12.10;4.40;;;6.10;99.90;;;;;;5017007;28;20470;-69
2022/12/05 11:12:39;;;;;;;9.40;4.20;;;6.10;99.90;;;;;;5029736;28;20044;-68
2022/12/05 11:15:24;;;;;;;10.27;4.27;;;6.10;99.90;;;;;;5015518;28;20401;-69
2022/12/05 11:17:54;;;;;;;8.77;3.88;;;6.10;99.90;;;;;;5032828;28;20370;-69
2022/12/05 11:20:19;;;;;;;9.52;4.13;;;6.10;99.90;;;;;;5018543;28;20042;-70
2022/12/05 11:22:48;;;;;;;9.47;3.80;;;6.10;99.90;;;;;;5017510;28;20427;-69
2022/12/05 11:25:31;;;;;;;12.20;4.50;;;6.10;99.90;;;;;;5015666;28;20034;-70
2022/12/05 11:27:59;;;;;;;8.52;3.42;;;6.10;99.90;;;;;;5017998;28;20117;-70
2022/12/05 11:30:27;;;;;;;10.07;4.30;;;6.10;99.90;;;;;;5011497;28;20049;-70
2022/12/05 11:33:19;;;;;;;8.32;4.15;;;6.10;99.90;;;;;;4991378;28;20034;-69
2022/12/05 11:35:46;;;;;;;12.15;4.22;;;6.10;99.90;;;;;;5020525;28;20091;-69
2022/12/05 11:38:14;;;;;;;8.02;3.67;;;6.10;99.90;;;;;;5018224;28;20457;-69
2022/12/05 11:40:46;;;;;;;11.00;4.10;;;6.10;99.90;;;;;;5009393;28;20045;-69
2022/12/05 11:43:32;;;;;;;12.75;4.43;;;6.10;99.90;;;;;;5018704;28;20116;-69
2022/12/05 11:46:35;;;;;;;11.80;3.95;;;6.10;99.90;;;;;;4978219;28;20144;-70
2022/12/05 11:49:25;;;;;;;8.10;3.55;;;6.10;99.90;;;;;;5019585;28;20404;-70
2022/12/05 11:52:27;;;;;;;7.20;3.45;;;6.10;99.90;;;;;;5019570;28;20046;-70
2022/12/05 11:55:14;;;;;;;11.40;4.28;;;6.00;99.90;;;;;;5017364;28;20148;-70
2022/12/05 11:58:04;;;;;;;12.05;4.10;;;6.00;99.90;;;;;;5019011;28;20061;-70
2022/12/05 12:00:48;;;;;;;7.93;3.47;;;6.10;99.90;;;;;;5021138;28;20121;-70
2022/12/05 12:03:47;;;;;;;8.82;3.38;;;6.10;99.90;;;;;;5017788;28;20040;-69
2022/12/05 12:06:21;;;;;;;7.82;3.60;;;6.10;99.90;;;;;;5017337;28;20406;-70
2022/12/05 12:08:53;;;;;;;7.55;3.13;;;6.00;99.90;;;;;;5032940;28;20034;-70
2022/12/05 12:11:48;;;;;;;8.32;3.33;;;6.00;99.90;;;;;;5019852;28;20590;-69
2022/12/05 12:14:26;;;;;;;8.23;3.58;;;6.00;99.90;;;;;;4974614;28;20458;-69
2022/12/05 12:16:58;;;;;;;10.52;3.30;;;6.00;99.90;;;;;;5034874;28;20041;-70
2022/12/05 12:19:45;;;;;;;8.80;3.38;;;6.00;99.90;;;;;;5022897;28;20493;-69
2022/12/05 12:22:26;;;;;;;6.85;2.55;;;6.00;99.90;;;;;;5022238;28;20045;-69
2022/12/05 12:24:57;;;;;;;5.80;2.85;;;6.00;99.90;;;;;;5011683;28;20082;-69
2022/12/05 12:27:45;;;;;;;8.55;2.90;;;6.10;99.90;;;;;;5024581;28;20268;-66
2022/12/05 12:30:16;;;;;;;6.13;2.80;;;6.10;99.90;;;;;;5023572;28;20033;-65
2022/12/05 12:33:06;;;;;;;5.30;2.78;;;6.10;99.90;;;;;;5026109;28;20130;-67
2022/12/05 12:36:16;;;;;;;7.80;3.05;;;6.00;99.90;;;;;;5022079;28;20057;-66
2022/12/05 12:38:45;;;;;;;4.95;2.42;;;6.10;99.90;;;;;;4949876;28;20039;-66
2022/12/05 12:41:39;;;;;;;6.03;2.47;;;6.10;99.90;;;;;;4927670;29;20043;-66
2022/12/05 12:44:29;;;;;;;5.03;2.50;;;6.10;99.90;;;;;;4993093;28;20527;-66
2022/12/05 12:47:00;;;;;;;5.28;2.35;;;6.10;99.90;;;;;;5017306;28;20037;-69
2022/12/05 12:49:47;;;;;;;3.20;1.45;;;6.10;99.90;;;;;;5022780;28;20076;-68
2022/12/05 12:52:17;;;;;;;6.47;2.70;;;6.10;99.90;;;;;;5028800;28;20191;-69
2022/12/05 12:55:02;;;;;;;5.05;2.03;;;6.10;99.90;;;;;;5037635;28;20117;-68
2022/12/05 12:58:17;;;;;;;4.00;1.80;;;6.10;99.90;;;;;;5021192;28;20562;-68
2022/12/05 13:01:00;;;;;;;4.03;1.52;;;6.10;99.90;;;;;;4958629;28;20060;-69
2022/12/05 13:03:40;;;;;;;4.90;1.60;;;6.20;99.90;;;;;;5017229;28;20056;-68
2022/12/05 13:06:38;;;;;;;8.45;1.90;;;6.10;99.90;;;;;;5024052;28;20075;-68
2022/12/05 13:09:08;;;;;;;;;;;6.10;99.90;;;;;;5021848;28;20045;-68
2022/12/05 13:11:37;;;;;;;5.00;1.40;;;6.10;99.90;;;;;;5025072;28;19925;-70
2022/12/05 13:14:10;;;;;;;5.00;1.77;;;6.10;99.90;;;;;;5027662;28;20429;-70
2022/12/05 13:16:42;;;;;;;3.70;1.30;;;6.00;99.90;;;;;;5027628;28;20045;-70
2022/12/05 13:19:24;;;;;;;5.85;1.40;;;6.10;99.90;;;;;;5016515;28;20153;-70
2022/12/05 13:21:50;;;;;;;3.38;1.25;;;6.00;99.90;;;;;;5002271;28;20045;-70
2022/12/05 13:24:19;;;;;;;6.05;1.52;;;6.10;99.90;;;;;;5020495;28;20049;-70
2022/12/05 13:26:48;;;;;;;2.38;1.20;;;6.00;99.90;;;;;;5028348;28;20046;-70
2022/12/05 13:29:25;;;;;;;4.28;1.50;;;6.00;99.90;;;;;;5024204;28;20037;-70